sensor_id;sensor_type;location;lat;lon;timestamp;P1;durP1;ratioP1;P2;durP2;ratioP2
7647;SDS011;3866;48.020;11.720;2024-01-16T00:01:41;4.17;;;1.80;;
7647;SDS011;3866;48.020;11.720;2024-01-16T00:04:08;2.70;;;2.40;;
7647;SDS011;3866;48.020;11.720;2024-01-16T00:06:39;2.23;;;1.70;;
7647;SDS011;3866;48.020;11.720;2024-01-16T00:09:06;2.47;;;2.07;;
7647;SDS011;3866;48.020;11.720;2024-01-16T00:11:33;2.50;;;2.30;;
7647;SDS011;3866;48.020;11.720;2024-01-16T00:14:05;2.27;;;1.97;;
7647;SDS011;3866;48.020;11.720;2024-01-16T00:16:32;5.07;;;2.60;;
7647;SDS011;3866;48.020;11.720;2024-01-16T00:18:59;3.97;;;2.90;;
7647;SDS011;3866;48.020;11.720;2024-01-16T00:21:25;4.63;;;2.50;;
7647;SDS011;3866;48.020;11.720;2024-01-16T00:23:53;3.43;;;1.90;;
7647;SDS011;3866;48.020;11.720;2024-01-16T00:26:20;4.00;;;2.13;;
7647;SDS011;3866;48.020;11.720;2024-01-16T00:28:47;2.93;;;1.90;;
7647;SDS011;3866;48.020;11.720;2024-01-16T00:31:14;3.87;;;2.23;;
7647;SDS011;3866;48.020;11.720;2024-01-16T00:33:41;3.10;;;2.40;;
7647;SDS011;3866;48.020;11.720;2024-01-16T00:36:08;2.73;;;2.10;;
7647;SDS011;3866;48.020;11.720;2024-01-16T00:38:35;3.00;;;1.87;;
7647;SDS011;3866;48.020;11.720;2024-01-16T00:41:03;3.60;;;2.43;;
7647;SDS011;3866;48.020;11.720;2024-01-16T00:43:31;2.63;;;2.03;;
7647;SDS011;3866;48.020;11.720;2024-01-16T00:46:00;4.53;;;1.77;;
7647;SDS011;3866;48.020;11.720;2024-01-16T00:48:27;5.30;;;2.07;;
7647;SDS011;3866;48.020;11.720;2024-01-16T00:50:56;4.30;;;2.07;;
7647;SDS011;3866;48.020;11.720;2024-01-16T00:53:22;2.53;;;2.00;;
7647;SDS011;3866;48.020;11.720;2024-01-16T00:55:49;3.23;;;2.47;;
7647;SDS011;3866;48.020;11.720;2024-01-16T00:58:18;3.07;;;2.63;;
7647;SDS011;3866;48.020;11.720;2024-01-16T01:00:45;3.23;;;1.87;;
7647;SDS011;3866;48.020;11.720;2024-01-16T01:03:12;1.97;;;1.70;;
7647;SDS011;3866;48.020;11.720;2024-01-16T01:05:39;2.30;;;1.53;;
7647;SDS011;3866;48.020;11.720;2024-01-16T01:08:06;3.40;;;1.60;;
7647;SDS011;3866;48.020;11.720;2024-01-16T01:10:34;4.20;;;1.57;;
7647;SDS011;3866;48.020;11.720;2024-01-16T01:13:01;3.63;;;1.67;;
7647;SDS011;3866;48.020;11.720;2024-01-16T01:15:29;2.87;;;1.97;;
7647;SDS011;3866;48.020;11.720;2024-01-16T01:17:56;2.47;;;2.07;;
7647;SDS011;3866;48.020;11.720;2024-01-16T01:20:23;2.13;;;1.77;;
7647;SDS011;3866;48.020;11.720;2024-01-16T01:22:50;3.77;;;1.93;;
7647;SDS011;3866;48.020;11.720;2024-01-16T01:25:17;2.87;;;1.70;;
7647;SDS011;3866;48.020;11.720;2024-01-16T01:27:45;3.00;;;1.60;;
7647;SDS011;3866;48.020;11.720;2024-01-16T01:30:12;3.50;;;2.20;;
7647;SDS011;3866;48.020;11.720;2024-01-16T01:32:41;2.60;;;1.80;;
7647;SDS011;3866;48.020;11.720;2024-01-16T01:35:09;2.13;;;1.60;;
7647;SDS011;3866;48.020;11.720;2024-01-16T01:37:36;1.87;;;1.70;;
7647;SDS011;3866;48.020;11.720;2024-01-16T01:40:03;2.00;;;1.70;;
7647;SDS011;3866;48.020;11.720;2024-01-16T01:42:31;3.37;;;2.20;;
7647;SDS011;3866;48.020;11.720;2024-01-16T01:44:58;3.23;;;1.80;;
7647;SDS011;3866;48.020;11.720;2024-01-16T01:47:25;1.70;;;1.50;;
7647;SDS011;3866;48.020;11.720;2024-01-16T01:49:53;2.23;;;2.03;;
7647;SDS011;3866;48.020;11.720;2024-01-16T01:52:21;2.57;;;1.60;;
7647;SDS011;3866;48.020;11.720;2024-01-16T01:54:48;3.20;;;1.87;;
7647;SDS011;3866;48.020;11.720;2024-01-16T01:57:17;2.67;;;1.87;;
7647;SDS011;3866;48.020;11.720;2024-01-16T01:59:45;4.00;;;1.73;;
7647;SDS011;3866;48.020;11.720;2024-01-16T02:02:12;2.67;;;2.10;;
7647;SDS011;3866;48.020;11.720;2024-01-16T02:04:39;4.20;;;2.00;;
7647;SDS011;3866;48.020;11.720;2024-01-16T02:07:08;3.33;;;2.23;;
7647;SDS011;3866;48.020;11.720;2024-01-16T02:09:36;3.20;;;2.00;;
7647;SDS011;3866;48.020;11.720;2024-01-16T02:12:03;2.90;;;1.90;;
7647;SDS011;3866;48.020;11.720;2024-01-16T02:14:31;3.57;;;1.90;;
7647;SDS011;3866;48.020;11.720;2024-01-16T02:16:57;2.97;;;2.10;;
7647;SDS011;3866;48.020;11.720;2024-01-16T02:19:24;2.27;;;1.60;;
7647;SDS011;3866;48.020;11.720;2024-01-16T02:21:52;4.07;;;2.40;;
7647;SDS011;3866;48.020;11.720;2024-01-16T02:24:26;4.03;;;2.20;;
7647;SDS011;3866;48.020;11.720;2024-01-16T02:26:53;3.73;;;2.13;;
7647;SDS011;3866;48.020;11.720;2024-01-16T02:29:20;4.57;;;1.93;;
7647;SDS011;3866;48.020;11.720;2024-01-16T02:31:47;2.50;;;2.23;;
7647;SDS011;3866;48.020;11.720;2024-01-16T02:34:14;3.33;;;2.30;;
7647;SDS011;3866;48.020;11.720;2024-01-16T02:36:41;3.73;;;2.53;;
7647;SDS011;3866;48.020;11.720;2024-01-16T02:39:13;2.47;;;2.10;;
7647;SDS011;3866;48.020;11.720;2024-01-16T02:41:42;2.80;;;2.60;;
7647;SDS011;3866;48.020;11.720;2024-01-16T02:44:09;4.40;;;2.40;;
7647;SDS011;3866;48.020;11.720;2024-01-16T02:46:35;5.73;;;3.00;;
7647;SDS011;3866;48.020;11.720;2024-01-16T02:49:04;6.10;;;3.50;;
7647;SDS011;3866;48.020;11.720;2024-01-16T02:51:32;5.17;;;2.87;;
7647;SDS011;3866;48.020;11.720;2024-01-16T02:53:59;3.97;;;2.67;;
7647;SDS011;3866;48.020;11.720;2024-01-16T02:56:26;4.97;;;2.73;;
7647;SDS011;3866;48.020;11.720;2024-01-16T02:58:54;2.73;;;2.40;;
7647;SDS011;3866;48.020;11.720;2024-01-16T03:01:21;7.53;;;3.13;;
7647;SDS011;3866;48.020;11.720;2024-01-16T03:03:48;3.80;;;2.80;;
7647;SDS011;3866;48.020;11.720;2024-01-16T03:06:21;4.33;;;3.13;;
7647;SDS011;3866;48.020;11.720;2024-01-16T03:08:49;4.27;;;2.80;;
7647;SDS011;3866;48.020;11.720;2024-01-16T03:11:16;2.80;;;2.60;;
7647;SDS011;3866;48.020;11.720;2024-01-16T03:13:43;3.90;;;2.93;;
7647;SDS011;3866;48.020;11.720;2024-01-16T03:16:11;5.13;;;3.50;;
7647;SDS011;3866;48.020;11.720;2024-01-16T03:18:38;3.53;;;2.60;;
7647;SDS011;3866;48.020;11.720;2024-01-16T03:21:06;5.03;;;2.73;;
7647;SDS011;3866;48.020;11.720;2024-01-16T03:23:33;4.23;;;2.60;;
7647;SDS011;3866;48.020;11.720;2024-01-16T03:26:00;5.37;;;3.33;;
7647;SDS011;3866;48.020;11.720;2024-01-16T03:28:28;4.13;;;2.80;;
7647;SDS011;3866;48.020;11.720;2024-01-16T03:30:55;3.80;;;2.70;;
7647;SDS011;3866;48.020;11.720;2024-01-16T03:33:23;4.23;;;3.17;;
7647;SDS011;3866;48.020;11.720;2024-01-16T03:35:50;5.43;;;3.23;;
7647;SDS011;3866;48.020;11.720;2024-01-16T03:38:17;6.33;;;3.30;;
7647;SDS011;3866;48.020;11.720;2024-01-16T03:40:44;4.37;;;2.67;;
7647;SDS011;3866;48.020;11.720;2024-01-16T03:43:11;5.67;;;3.00;;
7647;SDS011;3866;48.020;11.720;2024-01-16T03:45:38;4.43;;;2.90;;
7647;SDS011;3866;48.020;11.720;2024-01-16T03:48:05;4.53;;;2.97;;
7647;SDS011;3866;48.020;11.720;2024-01-16T03:50:33;3.70;;;2.57;;
7647;SDS011;3866;48.020;11.720;2024-01-16T03:53:01;4.53;;;2.93;;
7647;SDS011;3866;48.020;11.720;2024-01-16T03:55:29;6.40;;;2.60;;
7647;SDS011;3866;48.020;11.720;2024-01-16T03:57:56;4.10;;;2.73;;
7647;SDS011;3866;48.020;11.720;2024-01-16T04:00:23;3.70;;;2.70;;
7647;SDS011;3866;48.020;11.720;2024-01-16T04:02:50;4.30;;;2.60;;
7647;SDS011;3866;48.020;11.720;2024-01-16T04:05:17;4.60;;;3.30;;
7647;SDS011;3866;48.020;11.720;2024-01-16T04:07:46;6.37;;;3.00;;
7647;SDS011;3866;48.020;11.720;2024-01-16T04:10:12;6.40;;;3.87;;
7647;SDS011;3866;48.020;11.720;2024-01-16T04:12:39;6.00;;;3.17;;
7647;SDS011;3866;48.020;11.720;2024-01-16T04:15:07;5.70;;;3.27;;
7647;SDS011;3866;48.020;11.720;2024-01-16T04:17:34;4.47;;;3.30;;
7647;SDS011;3866;48.020;11.720;2024-01-16T04:20:01;6.33;;;3.97;;
7647;SDS011;3866;48.020;11.720;2024-01-16T04:22:28;7.07;;;3.30;;
7647;SDS011;3866;48.020;11.720;2024-01-16T04:24:56;5.77;;;3.17;;
7647;SDS011;3866;48.020;11.720;2024-01-16T04:27:23;5.90;;;3.10;;
7647;SDS011;3866;48.020;11.720;2024-01-16T04:29:50;4.17;;;3.17;;
7647;SDS011;3866;48.020;11.720;2024-01-16T04:32:18;6.00;;;3.63;;
7647;SDS011;3866;48.020;11.720;2024-01-16T04:34:45;5.53;;;3.43;;
7647;SDS011;3866;48.020;11.720;2024-01-16T04:37:12;3.47;;;2.90;;
7647;SDS011;3866;48.020;11.720;2024-01-16T04:39:38;5.40;;;3.53;;
7647;SDS011;3866;48.020;11.720;2024-01-16T04:42:07;6.83;;;3.60;;
7647;SDS011;3866;48.020;11.720;2024-01-16T04:44:34;7.20;;;4.80;;
7647;SDS011;3866;48.020;11.720;2024-01-16T04:47:01;4.93;;;3.90;;
7647;SDS011;3866;48.020;11.720;2024-01-16T04:49:28;6.87;;;3.73;;
7647;SDS011;3866;48.020;11.720;2024-01-16T04:51:55;4.40;;;2.90;;
7647;SDS011;3866;48.020;11.720;2024-01-16T04:54:21;8.37;;;3.30;;
7647;SDS011;3866;48.020;11.720;2024-01-16T04:56:48;5.73;;;3.30;;
7647;SDS011;3866;48.020;11.720;2024-01-16T04:59:17;7.43;;;4.20;;
7647;SDS011;3866;48.020;11.720;2024-01-16T05:01:43;7.17;;;4.67;;
7647;SDS011;3866;48.020;11.720;2024-01-16T05:04:10;5.33;;;3.30;;
7647;SDS011;3866;48.020;11.720;2024-01-16T05:06:37;8.87;;;4.30;;
7647;SDS011;3866;48.020;11.720;2024-01-16T05:09:04;4.40;;;3.40;;
7647;SDS011;3866;48.020;11.720;2024-01-16T05:11:31;4.50;;;3.10;;
7647;SDS011;3866;48.020;11.720;2024-01-16T05:13:58;11.83;;;3.83;;
7647;SDS011;3866;48.020;11.720;2024-01-16T05:16:26;6.47;;;3.33;;
7647;SDS011;3866;48.020;11.720;2024-01-16T05:18:53;6.53;;;3.50;;
7647;SDS011;3866;48.020;11.720;2024-01-16T05:21:20;5.87;;;4.10;;
7647;SDS011;3866;48.020;11.720;2024-01-16T05:23:47;6.87;;;4.27;;
7647;SDS011;3866;48.020;11.720;2024-01-16T05:26:14;7.73;;;3.70;;
7647;SDS011;3866;48.020;11.720;2024-01-16T05:28:41;4.40;;;3.30;;
7647;SDS011;3866;48.020;11.720;2024-01-16T05:31:08;5.53;;;3.63;;
7647;SDS011;3866;48.020;11.720;2024-01-16T05:33:36;7.57;;;3.17;;
7647;SDS011;3866;48.020;11.720;2024-01-16T05:36:03;5.93;;;3.30;;
7647;SDS011;3866;48.020;11.720;2024-01-16T05:38:30;4.93;;;3.93;;
7647;SDS011;3866;48.020;11.720;2024-01-16T05:40:57;5.90;;;3.80;;
7647;SDS011;3866;48.020;11.720;2024-01-16T05:43:24;5.03;;;3.60;;
7647;SDS011;3866;48.020;11.720;2024-01-16T05:45:51;7.00;;;4.90;;
7647;SDS011;3866;48.020;11.720;2024-01-16T05:48:18;9.47;;;4.63;;
7647;SDS011;3866;48.020;11.720;2024-01-16T05:50:46;7.10;;;4.20;;
7647;SDS011;3866;48.020;11.720;2024-01-16T05:53:13;6.17;;;4.13;;
7647;SDS011;3866;48.020;11.720;2024-01-16T05:55:40;5.47;;;4.03;;
7647;SDS011;3866;48.020;11.720;2024-01-16T05:58:06;6.00;;;3.67;;
7647;SDS011;3866;48.020;11.720;2024-01-16T06:00:33;6.57;;;3.80;;
7647;SDS011;3866;48.020;11.720;2024-01-16T06:03:00;5.33;;;3.73;;
7647;SDS011;3866;48.020;11.720;2024-01-16T06:05:28;8.50;;;3.67;;
7647;SDS011;3866;48.020;11.720;2024-01-16T06:07:56;5.70;;;4.23;;
7647;SDS011;3866;48.020;11.720;2024-01-16T06:10:23;7.20;;;3.80;;
7647;SDS011;3866;48.020;11.720;2024-01-16T06:12:50;5.83;;;3.80;;
7647;SDS011;3866;48.020;11.720;2024-01-16T06:15:16;7.37;;;4.20;;
7647;SDS011;3866;48.020;11.720;2024-01-16T06:17:43;6.53;;;3.57;;
7647;SDS011;3866;48.020;11.720;2024-01-16T06:20:10;9.07;;;4.43;;
7647;SDS011;3866;48.020;11.720;2024-01-16T06:22:38;7.73;;;4.30;;
7647;SDS011;3866;48.020;11.720;2024-01-16T06:25:06;5.00;;;3.33;;
7647;SDS011;3866;48.020;11.720;2024-01-16T06:27:33;6.43;;;4.03;;
7647;SDS011;3866;48.020;11.720;2024-01-16T06:30:00;6.80;;;4.27;;
7647;SDS011;3866;48.020;11.720;2024-01-16T06:32:28;4.93;;;3.97;;
7647;SDS011;3866;48.020;11.720;2024-01-16T06:34:55;6.23;;;3.97;;
7647;SDS011;3866;48.020;11.720;2024-01-16T06:37:22;7.27;;;4.47;;
7647;SDS011;3866;48.020;11.720;2024-01-16T06:39:49;6.10;;;4.00;;
7647;SDS011;3866;48.020;11.720;2024-01-16T06:42:17;6.40;;;4.43;;
7647;SDS011;3866;48.020;11.720;2024-01-16T06:44:44;5.00;;;3.73;;
7647;SDS011;3866;48.020;11.720;2024-01-16T06:47:11;6.97;;;4.17;;
7647;SDS011;3866;48.020;11.720;2024-01-16T06:49:38;6.40;;;4.47;;
7647;SDS011;3866;48.020;11.720;2024-01-16T06:52:06;6.83;;;4.63;;
7647;SDS011;3866;48.020;11.720;2024-01-16T06:54:34;6.93;;;4.30;;
7647;SDS011;3866;48.020;11.720;2024-01-16T06:57:01;8.17;;;4.40;;
7647;SDS011;3866;48.020;11.720;2024-01-16T06:59:30;5.73;;;3.97;;
7647;SDS011;3866;48.020;11.720;2024-01-16T07:01:57;7.27;;;4.40;;
7647;SDS011;3866;48.020;11.720;2024-01-16T07:04:24;6.70;;;4.30;;
7647;SDS011;3866;48.020;11.720;2024-01-16T07:06:50;6.27;;;3.93;;
7647;SDS011;3866;48.020;11.720;2024-01-16T07:09:17;8.00;;;4.67;;
7647;SDS011;3866;48.020;11.720;2024-01-16T07:11:45;5.30;;;4.40;;
7647;SDS011;3866;48.020;11.720;2024-01-16T07:14:12;6.87;;;4.23;;
7647;SDS011;3866;48.020;11.720;2024-01-16T07:16:41;8.23;;;4.63;;
7647;SDS011;3866;48.020;11.720;2024-01-16T07:19:08;5.97;;;3.87;;
7647;SDS011;3866;48.020;11.720;2024-01-16T07:21:35;6.50;;;4.20;;
7647;SDS011;3866;48.020;11.720;2024-01-16T07:24:02;6.70;;;4.47;;
7647;SDS011;3866;48.020;11.720;2024-01-16T07:26:29;7.97;;;4.93;;
7647;SDS011;3866;48.020;11.720;2024-01-16T07:28:56;6.00;;;3.90;;
7647;SDS011;3866;48.020;11.720;2024-01-16T07:31:23;7.67;;;4.33;;
7647;SDS011;3866;48.020;11.720;2024-01-16T07:33:53;6.77;;;4.43;;
7647;SDS011;3866;48.020;11.720;2024-01-16T07:36:20;8.30;;;4.30;;
7647;SDS011;3866;48.020;11.720;2024-01-16T07:38:47;6.00;;;3.93;;
7647;SDS011;3866;48.020;11.720;2024-01-16T07:41:14;6.13;;;4.00;;
7647;SDS011;3866;48.020;11.720;2024-01-16T07:43:40;8.10;;;4.10;;
7647;SDS011;3866;48.020;11.720;2024-01-16T07:46:07;5.87;;;3.87;;
7647;SDS011;3866;48.020;11.720;2024-01-16T07:48:34;6.03;;;3.93;;
7647;SDS011;3866;48.020;11.720;2024-01-16T07:51:03;5.50;;;3.83;;
7647;SDS011;3866;48.020;11.720;2024-01-16T07:53:31;6.80;;;3.97;;
7647;SDS011;3866;48.020;11.720;2024-01-16T07:55:58;6.63;;;3.80;;
7647;SDS011;3866;48.020;11.720;2024-01-16T07:58:24;4.87;;;3.43;;
7647;SDS011;3866;48.020;11.720;2024-01-16T08:00:51;6.63;;;4.10;;
7647;SDS011;3866;48.020;11.720;2024-01-16T08:03:18;8.07;;;3.97;;
7647;SDS011;3866;48.020;11.720;2024-01-16T08:05:45;5.33;;;3.40;;
7647;SDS011;3866;48.020;11.720;2024-01-16T08:08:13;5.10;;;3.80;;
7647;SDS011;3866;48.020;11.720;2024-01-16T08:10:40;5.50;;;3.67;;
7647;SDS011;3866;48.020;11.720;2024-01-16T08:13:08;6.57;;;4.03;;
7647;SDS011;3866;48.020;11.720;2024-01-16T08:15:35;5.13;;;3.87;;
7647;SDS011;3866;48.020;11.720;2024-01-16T08:18:02;4.70;;;3.13;;
7647;SDS011;3866;48.020;11.720;2024-01-16T08:20:29;5.17;;;3.40;;
7647;SDS011;3866;48.020;11.720;2024-01-16T08:22:56;4.17;;;3.17;;
7647;SDS011;3866;48.020;11.720;2024-01-16T08:25:24;4.37;;;3.03;;
7647;SDS011;3866;48.020;11.720;2024-01-16T08:27:51;6.37;;;3.07;;
7647;SDS011;3866;48.020;11.720;2024-01-16T08:30:18;4.43;;;2.77;;
7647;SDS011;3866;48.020;11.720;2024-01-16T08:32:45;3.67;;;2.60;;
7647;SDS011;3866;48.020;11.720;2024-01-16T08:35:12;5.00;;;2.97;;
7647;SDS011;3866;48.020;11.720;2024-01-16T08:37:39;6.63;;;3.13;;
7647;SDS011;3866;48.020;11.720;2024-01-16T08:40:06;4.40;;;3.10;;
7647;SDS011;3866;48.020;11.720;2024-01-16T08:42:35;7.57;;;3.40;;
7647;SDS011;3866;48.020;11.720;2024-01-16T08:45:02;17.77;;;9.33;;
7647;SDS011;3866;48.020;11.720;2024-01-16T08:47:30;9.53;;;4.20;;
7647;SDS011;3866;48.020;11.720;2024-01-16T08:49:57;7.87;;;3.67;;
7647;SDS011;3866;48.020;11.720;2024-01-16T08:52:24;6.03;;;3.40;;
7647;SDS011;3866;48.020;11.720;2024-01-16T08:54:51;6.27;;;4.00;;
7647;SDS011;3866;48.020;11.720;2024-01-16T08:57:18;4.07;;;3.03;;
7647;SDS011;3866;48.020;11.720;2024-01-16T08:59:46;5.10;;;2.80;;
7647;SDS011;3866;48.020;11.720;2024-01-16T09:02:13;4.83;;;3.30;;
7647;SDS011;3866;48.020;11.720;2024-01-16T09:04:40;6.80;;;3.00;;
7647;SDS011;3866;48.020;11.720;2024-01-16T09:07:07;4.23;;;3.60;;
7647;SDS011;3866;48.020;11.720;2024-01-16T09:09:34;5.80;;;3.37;;
7647;SDS011;3866;48.020;11.720;2024-01-16T09:12:01;7.13;;;3.13;;
7647;SDS011;3866;48.020;11.720;2024-01-16T09:14:28;3.77;;;2.97;;
7647;SDS011;3866;48.020;11.720;2024-01-16T09:16:57;9.67;;;3.77;;
7647;SDS011;3866;48.020;11.720;2024-01-16T09:19:23;5.37;;;3.07;;
7647;SDS011;3866;48.020;11.720;2024-01-16T09:21:50;4.90;;;2.87;;
7647;SDS011;3866;48.020;11.720;2024-01-16T09:24:17;3.90;;;2.97;;
7647;SDS011;3866;48.020;11.720;2024-01-16T09:26:45;3.80;;;2.90;;
7647;SDS011;3866;48.020;11.720;2024-01-16T09:29:12;3.57;;;2.60;;
7647;SDS011;3866;48.020;11.720;2024-01-16T09:31:39;5.17;;;3.27;;
7647;SDS011;3866;48.020;11.720;2024-01-16T09:34:08;5.53;;;2.50;;
7647;SDS011;3866;48.020;11.720;2024-01-16T09:36:35;8.93;;;4.73;;
7647;SDS011;3866;48.020;11.720;2024-01-16T09:39:04;3.83;;;2.70;;
7647;SDS011;3866;48.020;11.720;2024-01-16T09:41:33;3.70;;;2.40;;
7647;SDS011;3866;48.020;11.720;2024-01-16T09:44:00;5.73;;;2.83;;
7647;SDS011;3866;48.020;11.720;2024-01-16T09:46:27;5.73;;;3.57;;
7647;SDS011;3866;48.020;11.720;2024-01-16T09:48:56;5.37;;;3.37;;
7647;SDS011;3866;48.020;11.720;2024-01-16T09:51:28;5.13;;;3.30;;
7647;SDS011;3866;48.020;11.720;2024-01-16T09:53:55;5.00;;;2.87;;
7647;SDS011;3866;48.020;11.720;2024-01-16T09:56:22;5.80;;;3.40;;
7647;SDS011;3866;48.020;11.720;2024-01-16T09:58:52;4.17;;;2.80;;
7647;SDS011;3866;48.020;11.720;2024-01-16T10:01:23;4.13;;;2.97;;
7647;SDS011;3866;48.020;11.720;2024-01-16T10:03:51;5.17;;;3.07;;
7647;SDS011;3866;48.020;11.720;2024-01-16T10:06:19;5.63;;;2.70;;
7647;SDS011;3866;48.020;11.720;2024-01-16T10:08:49;4.83;;;2.80;;
7647;SDS011;3866;48.020;11.720;2024-01-16T10:11:16;7.67;;;3.10;;
7647;SDS011;3866;48.020;11.720;2024-01-16T10:13:43;5.80;;;3.50;;
7647;SDS011;3866;48.020;11.720;2024-01-16T10:16:11;3.67;;;3.10;;
7647;SDS011;3866;48.020;11.720;2024-01-16T10:18:37;4.33;;;2.57;;
7647;SDS011;3866;48.020;11.720;2024-01-16T10:21:09;3.67;;;2.43;;
7647;SDS011;3866;48.020;11.720;2024-01-16T10:23:46;4.23;;;2.53;;
7647;SDS011;3866;48.020;11.720;2024-01-16T10:26:15;3.50;;;2.70;;
7647;SDS011;3866;48.020;11.720;2024-01-16T10:28:43;3.50;;;2.53;;
7647;SDS011;3866;48.020;11.720;2024-01-16T10:31:11;5.40;;;2.90;;
7647;SDS011;3866;48.020;11.720;2024-01-16T10:33:39;4.87;;;2.20;;
7647;SDS011;3866;48.020;11.720;2024-01-16T10:36:09;3.87;;;2.73;;
7647;SDS011;3866;48.020;11.720;2024-01-16T10:38:38;7.47;;;2.90;;
7647;SDS011;3866;48.020;11.720;2024-01-16T10:41:08;3.33;;;2.60;;
7647;SDS011;3866;48.020;11.720;2024-01-16T10:43:36;5.13;;;2.60;;
7647;SDS011;3866;48.020;11.720;2024-01-16T10:46:06;6.10;;;2.67;;
7647;SDS011;3866;48.020;11.720;2024-01-16T10:48:37;3.13;;;1.90;;
7647;SDS011;3866;48.020;11.720;2024-01-16T10:51:05;3.10;;;2.00;;
7647;SDS011;3866;48.020;11.720;2024-01-16T10:53:34;3.83;;;2.30;;
7647;SDS011;3866;48.020;11.720;2024-01-16T10:56:01;2.80;;;1.87;;
7647;SDS011;3866;48.020;11.720;2024-01-16T10:58:31;5.00;;;2.90;;
7647;SDS011;3866;48.020;11.720;2024-01-16T11:01:01;2.60;;;2.00;;
7647;SDS011;3866;48.020;11.720;2024-01-16T11:03:29;4.40;;;2.40;;
7647;SDS011;3866;48.020;11.720;2024-01-16T11:06:01;2.73;;;2.10;;
7647;SDS011;3866;48.020;11.720;2024-01-16T11:08:33;5.47;;;2.40;;
7647;SDS011;3866;48.020;11.720;2024-01-16T11:11:06;3.60;;;1.87;;
7647;SDS011;3866;48.020;11.720;2024-01-16T11:13:35;2.10;;;1.80;;
7647;SDS011;3866;48.020;11.720;2024-01-16T11:16:03;4.60;;;2.30;;
7647;SDS011;3866;48.020;11.720;2024-01-16T11:18:33;3.07;;;1.80;;
7647;SDS011;3866;48.020;11.720;2024-01-16T11:21:01;3.97;;;2.07;;
7647;SDS011;3866;48.020;11.720;2024-01-16T11:23:31;5.13;;;2.23;;
7647;SDS011;3866;48.020;11.720;2024-01-16T11:25:58;3.67;;;2.33;;
7647;SDS011;3866;48.020;11.720;2024-01-16T11:28:26;2.87;;;1.90;;
7647;SDS011;3866;48.020;11.720;2024-01-16T11:30:56;5.13;;;2.30;;
7647;SDS011;3866;48.020;11.720;2024-01-16T11:33:42;3.40;;;1.93;;
7647;SDS011;3866;48.020;11.720;2024-01-16T11:39:16;5.10;;;2.60;;
7647;SDS011;3866;48.020;11.720;2024-01-16T11:41:48;7.70;;;4.27;;
7647;SDS011;3866;48.020;11.720;2024-01-16T11:47:19;2.87;;;2.57;;
7647;SDS011;3866;48.020;11.720;2024-01-16T11:49:47;5.33;;;2.70;;
7647;SDS011;3866;48.020;11.720;2024-01-16T11:52:14;6.80;;;3.43;;
7647;SDS011;3866;48.020;11.720;2024-01-16T11:55:03;4.50;;;2.87;;
7647;SDS011;3866;48.020;11.720;2024-01-16T11:57:59;4.87;;;3.37;;
7647;SDS011;3866;48.020;11.720;2024-01-16T12:00:48;3.27;;;2.40;;
7647;SDS011;3866;48.020;11.720;2024-01-16T12:03:18;4.50;;;3.30;;
7647;SDS011;3866;48.020;11.720;2024-01-16T12:05:54;3.80;;;2.60;;
7647;SDS011;3866;48.020;11.720;2024-01-16T12:08:21;3.77;;;2.60;;
7647;SDS011;3866;48.020;11.720;2024-01-16T12:10:49;4.13;;;2.70;;
7647;SDS011;3866;48.020;11.720;2024-01-16T12:13:19;3.20;;;2.00;;
7647;SDS011;3866;48.020;11.720;2024-01-16T12:15:46;3.50;;;1.70;;
7647;SDS011;3866;48.020;11.720;2024-01-16T12:18:17;2.10;;;1.70;;
7647;SDS011;3866;48.020;11.720;2024-01-16T12:20:44;1.73;;;1.57;;
7647;SDS011;3866;48.020;11.720;2024-01-16T12:23:11;2.93;;;1.70;;
7647;SDS011;3866;48.020;11.720;2024-01-16T12:25:40;3.10;;;1.83;;
7647;SDS011;3866;48.020;11.720;2024-01-16T12:28:08;4.17;;;2.50;;
7647;SDS011;3866;48.020;11.720;2024-01-16T12:30:37;4.20;;;2.07;;
7647;SDS011;3866;48.020;11.720;2024-01-16T12:33:04;5.60;;;2.57;;
7647;SDS011;3866;48.020;11.720;2024-01-16T12:35:33;5.03;;;2.33;;
7647;SDS011;3866;48.020;11.720;2024-01-16T12:38:01;2.03;;;1.53;;
7647;SDS011;3866;48.020;11.720;2024-01-16T12:40:28;3.53;;;1.80;;
7647;SDS011;3866;48.020;11.720;2024-01-16T12:42:55;2.77;;;1.70;;
7647;SDS011;3866;48.020;11.720;2024-01-16T12:45:23;3.50;;;1.97;;
7647;SDS011;3866;48.020;11.720;2024-01-16T12:47:51;3.10;;;1.80;;
7647;SDS011;3866;48.020;11.720;2024-01-16T12:50:21;3.77;;;1.97;;
7647;SDS011;3866;48.020;11.720;2024-01-16T12:52:49;3.00;;;2.10;;
7647;SDS011;3866;48.020;11.720;2024-01-16T12:55:16;4.77;;;2.90;;
7647;SDS011;3866;48.020;11.720;2024-01-16T12:57:44;2.53;;;2.00;;
7647;SDS011;3866;48.020;11.720;2024-01-16T13:00:20;3.73;;;2.00;;
7647;SDS011;3866;48.020;11.720;2024-01-16T13:02:52;3.33;;;2.20;;
7647;SDS011;3866;48.020;11.720;2024-01-16T13:05:22;4.90;;;2.23;;
7647;SDS011;3866;48.020;11.720;2024-01-16T13:07:59;1.80;;;1.70;;
7647;SDS011;3866;48.020;11.720;2024-01-16T13:10:28;4.07;;;2.33;;
7647;SDS011;3866;48.020;11.720;2024-01-16T13:13:10;2.37;;;1.77;;
7647;SDS011;3866;48.020;11.720;2024-01-16T13:15:40;2.87;;;1.80;;
7647;SDS011;3866;48.020;11.720;2024-01-16T13:18:16;3.47;;;2.13;;
7647;SDS011;3866;48.020;11.720;2024-01-16T13:20:47;3.50;;;2.20;;
7647;SDS011;3866;48.020;11.720;2024-01-16T13:23:15;3.60;;;2.03;;
7647;SDS011;3866;48.020;11.720;2024-01-16T13:25:42;3.00;;;2.13;;
7647;SDS011;3866;48.020;11.720;2024-01-16T13:28:10;4.50;;;2.17;;
7647;SDS011;3866;48.020;11.720;2024-01-16T13:30:40;4.40;;;2.63;;
7647;SDS011;3866;48.020;11.720;2024-01-16T13:33:07;3.93;;;2.33;;
7647;SDS011;3866;48.020;11.720;2024-01-16T13:35:35;3.43;;;2.00;;
7647;SDS011;3866;48.020;11.720;2024-01-16T13:38:04;2.87;;;1.70;;
7647;SDS011;3866;48.020;11.720;2024-01-16T13:40:31;5.03;;;2.10;;
7647;SDS011;3866;48.020;11.720;2024-01-16T13:42:58;2.10;;;1.70;;
7647;SDS011;3866;48.020;11.720;2024-01-16T13:45:26;3.03;;;1.87;;
7647;SDS011;3866;48.020;11.720;2024-01-16T13:47:55;1.63;;;1.53;;
7647;SDS011;3866;48.020;11.720;2024-01-16T13:50:22;2.47;;;1.73;;
7647;SDS011;3866;48.020;11.720;2024-01-16T13:52:49;1.83;;;1.70;;
7647;SDS011;3866;48.020;11.720;2024-01-16T13:55:17;2.53;;;1.70;;
7647;SDS011;3866;48.020;11.720;2024-01-16T13:57:44;2.30;;;1.80;;
7647;SDS011;3866;48.020;11.720;2024-01-16T14:00:12;3.90;;;2.30;;
7647;SDS011;3866;48.020;11.720;2024-01-16T14:02:40;2.47;;;2.10;;
7647;SDS011;3866;48.020;11.720;2024-01-16T14:05:09;5.03;;;2.53;;
7647;SDS011;3866;48.020;11.720;2024-01-16T14:07:36;4.37;;;2.30;;
7647;SDS011;3866;48.020;11.720;2024-01-16T14:10:04;5.40;;;3.10;;
7647;SDS011;3866;48.020;11.720;2024-01-16T14:12:32;5.23;;;2.97;;
7647;SDS011;3866;48.020;11.720;2024-01-16T14:15:00;6.13;;;3.07;;
7647;SDS011;3866;48.020;11.720;2024-01-16T14:17:29;4.33;;;2.93;;
7647;SDS011;3866;48.020;11.720;2024-01-16T14:19:56;4.03;;;2.80;;
7647;SDS011;3866;48.020;11.720;2024-01-16T14:22:24;5.63;;;3.30;;
7647;SDS011;3866;48.020;11.720;2024-01-16T14:24:52;4.77;;;3.37;;
7647;SDS011;3866;48.020;11.720;2024-01-16T14:27:20;5.63;;;3.63;;
7647;SDS011;3866;48.020;11.720;2024-01-16T14:29:46;5.07;;;3.20;;
7647;SDS011;3866;48.020;11.720;2024-01-16T14:32:13;5.07;;;3.70;;
7647;SDS011;3866;48.020;11.720;2024-01-16T14:34:40;4.80;;;3.60;;
7647;SDS011;3866;48.020;11.720;2024-01-16T14:37:07;7.00;;;4.33;;
7647;SDS011;3866;48.020;11.720;2024-01-16T14:39:36;7.00;;;4.13;;
7647;SDS011;3866;48.020;11.720;2024-01-16T14:42:03;10.57;;;6.10;;
7647;SDS011;3866;48.020;11.720;2024-01-16T14:44:31;4.80;;;4.27;;
7647;SDS011;3866;48.020;11.720;2024-01-16T14:46:58;5.80;;;3.57;;
7647;SDS011;3866;48.020;11.720;2024-01-16T14:49:25;5.87;;;3.33;;
7647;SDS011;3866;48.020;11.720;2024-01-16T14:51:56;4.40;;;3.53;;
7647;SDS011;3866;48.020;11.720;2024-01-16T14:54:24;5.13;;;3.70;;
7647;SDS011;3866;48.020;11.720;2024-01-16T14:56:52;5.43;;;3.77;;
7647;SDS011;3866;48.020;11.720;2024-01-16T14:59:19;4.67;;;3.63;;
7647;SDS011;3866;48.020;11.720;2024-01-16T15:01:47;5.63;;;3.57;;
7647;SDS011;3866;48.020;11.720;2024-01-16T15:04:16;4.83;;;3.40;;
7647;SDS011;3866;48.020;11.720;2024-01-16T15:06:43;7.73;;;5.07;;
7647;SDS011;3866;48.020;11.720;2024-01-16T15:09:10;4.33;;;3.67;;
7647;SDS011;3866;48.020;11.720;2024-01-16T15:11:38;6.27;;;4.20;;